Overview Statistics Trail Chart Weather Telemetry Raw packets
 

This is the latest recevied weather packets stored in our database for station/object DL6DJ-15. If no packets are shown the sender has not sent any weather packets the latest 10 day(s).

<< 94 95 96 97 98 99 100 >>
Time Temp. Humidity Pressure Rain* Wind** Luminosity Snow
1787904924 33.33° C 33% 1013.1 hPa - - - -
1787904624 32.22° C 35% 1013.1 hPa - - - -
1787904323 31.67° C 36% 1013.1 hPa - - - -
1787904023 32.78° C 34% 1013.2 hPa - - - -
1787903723 32.78° C 34% 1013.3 hPa - - - -
1787903422 33.33° C 33% 1013.3 hPa - - - -
1787903122 33.33° C 32% 1013.3 hPa - - - -
1787902822 33.33° C 32% 1013.3 hPa - - - -
1787902521 32.78° C 35% 1013.2 hPa - - - -
1787902221 32.78° C 34% 1013.1 hPa - - - -
1787901921 32.78° C 33% 1012.9 hPa - - - -
1787901620 32.22° C 34% 1013 hPa - - - -
1787901320 32.22° C 36% 1013 hPa - - - -
1787901019 31.11° C 38% 1013.1 hPa - - - -
1787900719 30.56° C 39% 1013.2 hPa - - - -
1787900418 30° C 39% 1013.2 hPa - - - -
1787900118 30° C 40% 1013.2 hPa - - - -
1787899818 28.89° C 43% 1013.1 hPa - - - -
1787899517 28.89° C 42% 1013.2 hPa - - - -
1787899216 27.78° C 45% 1013.3 hPa - - - -
1787898916 27.22° C 48% 1013.3 hPa - - - -
1787898616 26.67° C 48% 1013.6 hPa - - - -
1787898316 26.11° C 50% 1013.9 hPa - - - -
1787898015 25° C 54% 1014.2 hPa - - - -
1787897722 24.44° C 58% 1014.2 hPa - - - -

* Rain since midnight (hover to see other rain measurements)
** Current wind speed in m/s (hover to see current wind gust speed)